sensor_id;sensor_type;location;lat;lon;timestamp;pressure;altitude;pressure_sealevel;temperature;humidity
79368;BME280;68834;53.152;17.962;2023-04-06T00:00:21;101874.54;;;-1.77;63.51
79368;BME280;68834;53.152;17.962;2023-04-06T00:03:08;101873.80;;;-1.78;64.08
79368;BME280;68834;53.152;17.962;2023-04-06T00:05:35;101869.44;;;-1.80;64.33
79368;BME280;68834;53.152;17.962;2023-04-06T00:08:02;101869.86;;;-1.82;64.47
79368;BME280;68834;53.152;17.962;2023-04-06T00:10:29;101872.14;;;-1.85;64.03
79368;BME280;68834;53.152;17.962;2023-04-06T00:12:55;101870.13;;;-1.87;64.36
79368;BME280;68834;53.152;17.962;2023-04-06T00:15:23;101872.05;;;-1.91;64.20
79368;BME280;68834;53.152;17.962;2023-04-06T00:17:50;101871.23;;;-1.94;64.46
79368;BME280;68834;53.152;17.962;2023-04-06T00:20:17;101868.35;;;-1.97;64.29
79368;BME280;68834;53.152;17.962;2023-04-06T00:22:44;101866.88;;;-1.99;64.22
79368;BME280;68834;53.152;17.962;2023-04-06T00:25:11;101868.14;;;-2.02;64.36
79368;BME280;68834;53.152;17.962;2023-04-06T00:27:38;101872.77;;;-2.06;64.76
79368;BME280;68834;53.152;17.962;2023-04-06T00:30:07;101877.01;;;-2.10;65.01
79368;BME280;68834;53.152;17.962;2023-04-06T00:32:35;101877.98;;;-2.16;65.35
79368;BME280;68834;53.152;17.962;2023-04-06T00:35:03;101878.41;;;-2.21;64.80
79368;BME280;68834;53.152;17.962;2023-04-06T00:37:30;101871.21;;;-2.25;65.05
79368;BME280;68834;53.152;17.962;2023-04-06T00:39:57;101867.44;;;-2.29;65.55
79368;BME280;68834;53.152;17.962;2023-04-06T00:42:24;101867.38;;;-2.34;65.37
79368;BME280;68834;53.152;17.962;2023-04-06T00:44:55;101870.10;;;-2.39;65.72
79368;BME280;68834;53.152;17.962;2023-04-06T00:47:23;101872.34;;;-2.42;65.74
79368;BME280;68834;53.152;17.962;2023-04-06T00:49:53;101871.64;;;-2.42;66.32
79368;BME280;68834;53.152;17.962;2023-04-06T00:52:20;101874.45;;;-2.41;65.80
79368;BME280;68834;53.152;17.962;2023-04-06T00:54:48;101876.27;;;-2.39;66.15
79368;BME280;68834;53.152;17.962;2023-04-06T00:57:17;101874.02;;;-2.35;66.12
79368;BME280;68834;53.152;17.962;2023-04-06T00:59:44;101877.27;;;-2.31;66.01
79368;BME280;68834;53.152;17.962;2023-04-06T01:02:12;101880.36;;;-2.27;66.26
79368;BME280;68834;53.152;17.962;2023-04-06T01:04:43;101880.72;;;-2.27;66.17
79368;BME280;68834;53.152;17.962;2023-04-06T01:07:16;101874.89;;;-2.27;65.91
79368;BME280;68834;53.152;17.962;2023-04-06T01:09:53;101876.80;;;-2.26;65.93
79368;BME280;68834;53.152;17.962;2023-04-06T01:12:22;101874.35;;;-2.27;66.63
79368;BME280;68834;53.152;17.962;2023-04-06T01:14:49;101873.53;;;-2.30;66.44
79368;BME280;68834;53.152;17.962;2023-04-06T01:17:16;101872.38;;;-2.33;66.39
79368;BME280;68834;53.152;17.962;2023-04-06T01:19:43;101870.04;;;-2.36;65.93
79368;BME280;68834;53.152;17.962;2023-04-06T01:22:16;101871.92;;;-2.40;66.25
79368;BME280;68834;53.152;17.962;2023-04-06T01:24:50;101869.19;;;-2.43;66.45
79368;BME280;68834;53.152;17.962;2023-04-06T01:27:23;101866.64;;;-2.47;66.49
79368;BME280;68834;53.152;17.962;2023-04-06T01:30:01;101867.42;;;-2.52;66.72
79368;BME280;68834;53.152;17.962;2023-04-06T01:32:48;101865.19;;;-2.56;66.71
79368;BME280;68834;53.152;17.962;2023-04-06T01:35:18;101863.98;;;-2.60;67.20
79368;BME280;68834;53.152;17.962;2023-04-06T01:37:52;101865.91;;;-2.63;66.78
79368;BME280;68834;53.152;17.962;2023-04-06T01:40:24;101862.16;;;-2.66;67.30
79368;BME280;68834;53.152;17.962;2023-04-06T01:42:51;101860.70;;;-2.68;67.19
79368;BME280;68834;53.152;17.962;2023-04-06T01:45:24;101862.53;;;-2.69;67.31
79368;BME280;68834;53.152;17.962;2023-04-06T01:47:51;101863.34;;;-2.70;67.34
79368;BME280;68834;53.152;17.962;2023-04-06T01:50:21;101865.13;;;-2.72;67.42
79368;BME280;68834;53.152;17.962;2023-04-06T01:52:47;101863.35;;;-2.73;67.72
79368;BME280;68834;53.152;17.962;2023-04-06T01:55:15;101866.73;;;-2.74;67.52
79368;BME280;68834;53.152;17.962;2023-04-06T01:58:13;101864.79;;;-2.72;67.57
79368;BME280;68834;53.152;17.962;2023-04-06T02:00:40;101865.22;;;-2.66;67.53
79368;BME280;68834;53.152;17.962;2023-04-06T02:03:07;101865.02;;;-2.59;67.58
79368;BME280;68834;53.152;17.962;2023-04-06T02:05:34;101860.48;;;-2.54;67.49
79368;BME280;68834;53.152;17.962;2023-04-06T02:08:07;101861.80;;;-2.48;67.75
79368;BME280;68834;53.152;17.962;2023-04-06T02:10:35;101862.06;;;-2.42;67.40
79368;BME280;68834;53.152;17.962;2023-04-06T02:13:07;101855.92;;;-2.38;67.42
79368;BME280;68834;53.152;17.962;2023-04-06T02:15:34;101855.58;;;-2.34;67.69
79368;BME280;68834;53.152;17.962;2023-04-06T02:18:01;101855.20;;;-2.31;66.92
79368;BME280;68834;53.152;17.962;2023-04-06T02:20:27;101854.31;;;-2.31;67.04
79368;BME280;68834;53.152;17.962;2023-04-06T02:22:58;101850.21;;;-2.35;67.09
79368;BME280;68834;53.152;17.962;2023-04-06T02:25:25;101856.21;;;-2.39;67.06
79368;BME280;68834;53.152;17.962;2023-04-06T02:27:51;101855.61;;;-2.41;67.18
79368;BME280;68834;53.152;17.962;2023-04-06T02:30:18;101853.23;;;-2.44;67.01
79368;BME280;68834;53.152;17.962;2023-04-06T02:32:44;101852.92;;;-2.47;67.01
79368;BME280;68834;53.152;17.962;2023-04-06T02:35:11;101849.88;;;-2.50;67.12
79368;BME280;68834;53.152;17.962;2023-04-06T02:37:39;101854.45;;;-2.55;67.39
79368;BME280;68834;53.152;17.962;2023-04-06T02:40:06;101857.00;;;-2.59;67.74
79368;BME280;68834;53.152;17.962;2023-04-06T02:42:32;101856.11;;;-2.64;67.30
79368;BME280;68834;53.152;17.962;2023-04-06T02:44:59;101856.83;;;-2.66;67.74
79368;BME280;68834;53.152;17.962;2023-04-06T02:47:29;101859.58;;;-2.70;67.18
79368;BME280;68834;53.152;17.962;2023-04-06T02:49:56;101860.91;;;-2.74;67.76
79368;BME280;68834;53.152;17.962;2023-04-06T02:52:22;101863.93;;;-2.79;67.66
79368;BME280;68834;53.152;17.962;2023-04-06T02:54:49;101867.33;;;-2.83;67.91
79368;BME280;68834;53.152;17.962;2023-04-06T02:57:21;101867.68;;;-2.87;67.74
79368;BME280;68834;53.152;17.962;2023-04-06T02:59:48;101869.54;;;-2.87;67.60
79368;BME280;68834;53.152;17.962;2023-04-06T03:02:22;101870.69;;;-2.85;67.60
79368;BME280;68834;53.152;17.962;2023-04-06T03:04:48;101872.27;;;-2.80;67.53
79368;BME280;68834;53.152;17.962;2023-04-06T03:07:23;101871.97;;;-2.75;67.43
79368;BME280;68834;53.152;17.962;2023-04-06T03:09:49;101869.24;;;-2.71;67.56
79368;BME280;68834;53.152;17.962;2023-04-06T03:12:17;101870.95;;;-2.68;67.31
79368;BME280;68834;53.152;17.962;2023-04-06T03:15:10;101875.30;;;-2.63;67.69
79368;BME280;68834;53.152;17.962;2023-04-06T03:17:38;101878.82;;;-2.61;67.57
79368;BME280;68834;53.152;17.962;2023-04-06T03:20:08;101881.48;;;-2.59;67.57
79368;BME280;68834;53.152;17.962;2023-04-06T03:22:35;101882.64;;;-2.56;67.61
79368;BME280;68834;53.152;17.962;2023-04-06T03:25:03;101877.94;;;-2.54;68.42
79368;BME280;68834;53.152;17.962;2023-04-06T03:27:30;101879.83;;;-2.54;68.38
79368;BME280;68834;53.152;17.962;2023-04-06T03:29:57;101877.33;;;-2.52;68.07
79368;BME280;68834;53.152;17.962;2023-04-06T03:32:28;101879.51;;;-2.50;67.85
79368;BME280;68834;53.152;17.962;2023-04-06T03:34:55;101879.08;;;-2.47;68.12
79368;BME280;68834;53.152;17.962;2023-04-06T03:37:21;101879.09;;;-2.47;68.28
79368;BME280;68834;53.152;17.962;2023-04-06T03:39:51;101877.72;;;-2.47;68.63
79368;BME280;68834;53.152;17.962;2023-04-06T03:42:20;101878.07;;;-2.47;68.35
79368;BME280;68834;53.152;17.962;2023-04-06T03:44:53;101882.32;;;-2.48;68.72
79368;BME280;68834;53.152;17.962;2023-04-06T03:47:20;101878.81;;;-2.50;68.45
79368;BME280;68834;53.152;17.962;2023-04-06T03:49:47;101881.83;;;-2.51;68.41
79368;BME280;68834;53.152;17.962;2023-04-06T03:52:14;101880.52;;;-2.53;68.41
79368;BME280;68834;53.152;17.962;2023-04-06T03:54:41;101883.67;;;-2.56;68.42
79368;BME280;68834;53.152;17.962;2023-04-06T03:57:10;101881.10;;;-2.56;68.28
79368;BME280;68834;53.152;17.962;2023-04-06T03:59:37;101884.94;;;-2.54;68.40
79368;BME280;68834;53.152;17.962;2023-04-06T04:02:03;101885.05;;;-2.52;68.37
79368;BME280;68834;53.152;17.962;2023-04-06T04:04:30;101885.86;;;-2.49;68.09
79368;BME280;68834;53.152;17.962;2023-04-06T04:06:57;101883.05;;;-2.47;68.42
79368;BME280;68834;53.152;17.962;2023-04-06T04:09:23;101886.05;;;-2.46;68.14
79368;BME280;68834;53.152;17.962;2023-04-06T04:11:50;101889.41;;;-2.46;68.22
79368;BME280;68834;53.152;17.962;2023-04-06T04:14:17;101891.73;;;-2.48;68.07
79368;BME280;68834;53.152;17.962;2023-04-06T04:16:45;101889.11;;;-2.49;68.41
79368;BME280;68834;53.152;17.962;2023-04-06T04:19:11;101894.06;;;-2.50;68.24
79368;BME280;68834;53.152;17.962;2023-04-06T04:21:46;101893.71;;;-2.50;68.28
79368;BME280;68834;53.152;17.962;2023-04-06T04:24:15;101895.84;;;-2.48;68.15
79368;BME280;68834;53.152;17.962;2023-04-06T04:26:41;101897.70;;;-2.49;68.32
79368;BME280;68834;53.152;17.962;2023-04-06T04:29:09;101897.46;;;-2.50;68.48
79368;BME280;68834;53.152;17.962;2023-04-06T04:31:36;101898.59;;;-2.51;68.18
79368;BME280;68834;53.152;17.962;2023-04-06T04:34:04;101898.02;;;-2.53;68.68
79368;BME280;68834;53.152;17.962;2023-04-06T04:36:33;101898.29;;;-2.54;68.50
79368;BME280;68834;53.152;17.962;2023-04-06T04:39:02;101894.83;;;-2.55;68.62
79368;BME280;68834;53.152;17.962;2023-04-06T04:41:31;101896.70;;;-2.55;68.62
79368;BME280;68834;53.152;17.962;2023-04-06T04:43:58;101895.17;;;-2.55;69.08
79368;BME280;68834;53.152;17.962;2023-04-06T04:46:25;101897.08;;;-2.54;68.97
79368;BME280;68834;53.152;17.962;2023-04-06T04:48:53;101897.23;;;-2.51;69.15
79368;BME280;68834;53.152;17.962;2023-04-06T04:51:19;101899.46;;;-2.44;69.24
79368;BME280;68834;53.152;17.962;2023-04-06T04:54:04;101901.25;;;-2.35;68.93
79368;BME280;68834;53.152;17.962;2023-04-06T04:56:32;101904.08;;;-2.25;69.14
79368;BME280;68834;53.152;17.962;2023-04-06T04:59:12;101904.98;;;-2.13;69.01
79368;BME280;68834;53.152;17.962;2023-04-06T05:01:39;101906.31;;;-2.03;68.42
79368;BME280;68834;53.152;17.962;2023-04-06T05:04:06;101908.85;;;-1.96;68.48
79368;BME280;68834;53.152;17.962;2023-04-06T05:06:33;101908.06;;;-1.86;68.81
79368;BME280;68834;53.152;17.962;2023-04-06T05:09:00;101906.70;;;-1.78;68.57
79368;BME280;68834;53.152;17.962;2023-04-06T05:11:27;101904.20;;;-1.73;69.49
79368;BME280;68834;53.152;17.962;2023-04-06T05:13:57;101905.69;;;-1.66;68.69
79368;BME280;68834;53.152;17.962;2023-04-06T05:16:24;101908.05;;;-1.59;68.75
79368;BME280;68834;53.152;17.962;2023-04-06T05:18:51;101910.98;;;-1.51;69.14
79368;BME280;68834;53.152;17.962;2023-04-06T05:21:18;101908.49;;;-1.45;69.21
79368;BME280;68834;53.152;17.962;2023-04-06T05:24:06;101907.76;;;-1.38;69.12
79368;BME280;68834;53.152;17.962;2023-04-06T05:26:34;101906.61;;;-1.32;68.55
79368;BME280;68834;53.152;17.962;2023-04-06T05:29:06;101911.52;;;-1.26;68.77
79368;BME280;68834;53.152;17.962;2023-04-06T05:31:35;101912.58;;;-1.17;68.62
79368;BME280;68834;53.152;17.962;2023-04-06T05:34:01;101914.98;;;-1.08;68.47
79368;BME280;68834;53.152;17.962;2023-04-06T05:36:32;101917.36;;;-1.01;68.52
79368;BME280;68834;53.152;17.962;2023-04-06T05:39:00;101913.33;;;-0.95;68.47
79368;BME280;68834;53.152;17.962;2023-04-06T05:41:34;101908.22;;;-0.89;68.71
79368;BME280;68834;53.152;17.962;2023-04-06T05:44:01;101904.03;;;-0.87;68.45
79368;BME280;68834;53.152;17.962;2023-04-06T05:46:28;101907.00;;;-0.85;68.61
79368;BME280;68834;53.152;17.962;2023-04-06T05:48:57;101909.07;;;-0.81;68.45
79368;BME280;68834;53.152;17.962;2023-04-06T05:51:25;101910.23;;;-0.74;68.36
79368;BME280;68834;53.152;17.962;2023-04-06T05:53:53;101911.38;;;-0.62;68.18
79368;BME280;68834;53.152;17.962;2023-04-06T05:56:20;101910.31;;;-0.49;68.03
79368;BME280;68834;53.152;17.962;2023-04-06T05:58:47;101913.90;;;-0.37;67.83
79368;BME280;68834;53.152;17.962;2023-04-06T06:01:15;101912.59;;;-0.26;67.51
79368;BME280;68834;53.152;17.962;2023-04-06T06:03:45;101907.90;;;-0.14;67.74
79368;BME280;68834;53.152;17.962;2023-04-06T06:06:12;101909.21;;;-0.01;67.62
79368;BME280;68834;53.152;17.962;2023-04-06T06:08:54;101909.77;;;0.14;67.39
79368;BME280;68834;53.152;17.962;2023-04-06T06:11:21;101908.26;;;0.24;67.23
79368;BME280;68834;53.152;17.962;2023-04-06T06:13:47;101905.47;;;0.33;67.04
79368;BME280;68834;53.152;17.962;2023-04-06T06:16:15;101899.13;;;0.43;67.04
79368;BME280;68834;53.152;17.962;2023-04-06T06:18:45;101899.92;;;0.52;66.75
79368;BME280;68834;53.152;17.962;2023-04-06T06:21:12;101902.09;;;0.59;66.78
79368;BME280;68834;53.152;17.962;2023-04-06T06:23:39;101904.05;;;0.66;66.57
79368;BME280;68834;53.152;17.962;2023-04-06T06:26:06;101901.53;;;0.73;66.42
79368;BME280;68834;53.152;17.962;2023-04-06T06:28:33;101904.39;;;0.81;66.21
79368;BME280;68834;53.152;17.962;2023-04-06T06:31:00;101897.58;;;0.88;66.16
79368;BME280;68834;53.152;17.962;2023-04-06T06:33:27;101899.55;;;0.97;65.82
79368;BME280;68834;53.152;17.962;2023-04-06T06:35:54;101903.25;;;1.05;66.03
79368;BME280;68834;53.152;17.962;2023-04-06T06:38:21;101904.52;;;1.12;65.69
79368;BME280;68834;53.152;17.962;2023-04-06T06:40:48;101908.72;;;1.19;65.55
79368;BME280;68834;53.152;17.962;2023-04-06T06:43:15;101907.31;;;1.29;65.56
79368;BME280;68834;53.152;17.962;2023-04-06T06:46:03;101908.20;;;1.41;65.56
79368;BME280;68834;53.152;17.962;2023-04-06T06:48:30;101906.95;;;1.51;65.15
79368;BME280;68834;53.152;17.962;2023-04-06T06:50:57;101903.61;;;1.60;65.11
79368;BME280;68834;53.152;17.962;2023-04-06T06:53:23;101900.66;;;1.71;65.14
79368;BME280;68834;53.152;17.962;2023-04-06T06:55:50;101904.72;;;1.85;64.77
79368;BME280;68834;53.152;17.962;2023-04-06T06:58:18;101903.77;;;2.00;64.65
79368;BME280;68834;53.152;17.962;2023-04-06T07:00:46;101901.09;;;2.15;64.44
79368;BME280;68834;53.152;17.962;2023-04-06T07:03:13;101903.80;;;2.31;64.23
79368;BME280;68834;53.152;17.962;2023-04-06T07:05:46;101902.70;;;2.49;64.24
79368;BME280;68834;53.152;17.962;2023-04-06T07:08:21;101900.27;;;2.67;63.87
79368;BME280;68834;53.152;17.962;2023-04-06T07:10:48;101897.99;;;2.87;63.76
79368;BME280;68834;53.152;17.962;2023-04-06T07:13:15;101897.40;;;3.12;63.30
79368;BME280;68834;53.152;17.962;2023-04-06T07:15:48;101891.38;;;3.42;63.11
79368;BME280;68834;53.152;17.962;2023-04-06T07:18:16;101887.77;;;3.66;62.31
79368;BME280;68834;53.152;17.962;2023-04-06T07:20:43;101890.06;;;3.85;61.92
79368;BME280;68834;53.152;17.962;2023-04-06T07:23:10;101889.95;;;4.05;61.66
79368;BME280;68834;53.152;17.962;2023-04-06T07:25:36;101887.24;;;4.26;61.34
79368;BME280;68834;53.152;17.962;2023-04-06T07:28:03;101885.58;;;4.47;61.04
79368;BME280;68834;53.152;17.962;2023-04-06T07:30:31;101886.01;;;4.71;60.68
79368;BME280;68834;53.152;17.962;2023-04-06T07:32:59;101885.05;;;4.96;60.15
79368;BME280;68834;53.152;17.962;2023-04-06T07:35:27;101887.12;;;5.17;59.26
79368;BME280;68834;53.152;17.962;2023-04-06T07:37:54;101888.79;;;5.36;58.85
79368;BME280;68834;53.152;17.962;2023-04-06T07:40:21;101885.77;;;5.54;58.10
79368;BME280;68834;53.152;17.962;2023-04-06T07:42:49;101882.68;;;5.69;57.41
79368;BME280;68834;53.152;17.962;2023-04-06T07:45:15;101882.15;;;5.82;56.48
79368;BME280;68834;53.152;17.962;2023-04-06T07:47:42;101883.90;;;5.95;56.27
79368;BME280;68834;53.152;17.962;2023-04-06T07:50:10;101881.50;;;6.12;55.69
79368;BME280;68834;53.152;17.962;2023-04-06T07:52:38;101881.37;;;6.30;55.21
79368;BME280;68834;53.152;17.962;2023-04-06T07:55:05;101873.77;;;6.52;54.71
79368;BME280;68834;53.152;17.962;2023-04-06T07:57:32;101873.35;;;6.81;53.66
79368;BME280;68834;53.152;17.962;2023-04-06T07:59:59;101870.48;;;7.12;52.77
79368;BME280;68834;53.152;17.962;2023-04-06T08:02:25;101871.41;;;7.47;51.88
79368;BME280;68834;53.152;17.962;2023-04-06T08:04:52;101873.16;;;7.84;50.96
79368;BME280;68834;53.152;17.962;2023-04-06T08:07:19;101870.19;;;8.29;49.57
79368;BME280;68834;53.152;17.962;2023-04-06T08:09:46;101867.31;;;8.96;48.72
79368;BME280;68834;53.152;17.962;2023-04-06T08:12:13;101861.66;;;9.57;47.37
79368;BME280;68834;53.152;17.962;2023-04-06T08:14:40;101858.20;;;9.98;46.16
79368;BME280;68834;53.152;17.962;2023-04-06T08:17:06;101856.34;;;10.53;45.05
79368;BME280;68834;53.152;17.962;2023-04-06T08:19:33;101861.70;;;10.83;43.99
79368;BME280;68834;53.152;17.962;2023-04-06T08:22:00;101856.27;;;10.84;42.97
79368;BME280;68834;53.152;17.962;2023-04-06T08:24:26;101854.02;;;10.81;41.97
79368;BME280;68834;53.152;17.962;2023-04-06T08:26:53;101856.48;;;10.79;41.10
79368;BME280;68834;53.152;17.962;2023-04-06T08:29:19;101856.58;;;10.69;40.58
79368;BME280;68834;53.152;17.962;2023-04-06T08:31:46;101857.31;;;10.61;40.05
79368;BME280;68834;53.152;17.962;2023-04-06T08:34:13;101859.55;;;10.66;39.54
79368;BME280;68834;53.152;17.962;2023-04-06T08:36:39;101854.08;;;10.74;39.30
79368;BME280;68834;53.152;17.962;2023-04-06T08:39:06;101856.45;;;10.84;38.59
79368;BME280;68834;53.152;17.962;2023-04-06T08:41:34;101853.86;;;10.79;38.68
79368;BME280;68834;53.152;17.962;2023-04-06T08:44:02;101854.44;;;10.72;38.02
79368;BME280;68834;53.152;17.962;2023-04-06T08:46:30;101855.35;;;10.66;37.96
79368;BME280;68834;53.152;17.962;2023-04-06T08:49:01;101856.77;;;10.65;37.39
79368;BME280;68834;53.152;17.962;2023-04-06T08:51:29;101855.70;;;10.69;37.10
79368;BME280;68834;53.152;17.962;2023-04-06T08:53:59;101853.77;;;10.90;36.72
79368;BME280;68834;53.152;17.962;2023-04-06T08:56:27;101851.88;;;11.26;36.12
79368;BME280;68834;53.152;17.962;2023-04-06T08:58:54;101841.83;;;11.79;35.56
79368;BME280;68834;53.152;17.962;2023-04-06T09:01:25;101849.36;;;12.56;35.25
79368;BME280;68834;53.152;17.962;2023-04-06T09:03:56;101853.80;;;13.17;32.63
79368;BME280;68834;53.152;17.962;2023-04-06T09:06:24;101848.29;;;13.68;31.10
79368;BME280;68834;53.152;17.962;2023-04-06T09:08:53;101833.40;;;13.92;29.25
79368;BME280;68834;53.152;17.962;2023-04-06T09:11:21;101825.87;;;13.98;29.09
79368;BME280;68834;53.152;17.962;2023-04-06T09:13:49;101809.45;;;14.17;28.67
79368;BME280;68834;53.152;17.962;2023-04-06T09:16:17;101825.48;;;14.47;30.13
79368;BME280;68834;53.152;17.962;2023-04-06T09:18:44;101827.16;;;15.07;29.81
79368;BME280;68834;53.152;17.962;2023-04-06T09:21:11;101825.19;;;15.41;29.42
79368;BME280;68834;53.152;17.962;2023-04-06T09:23:39;101825.90;;;15.66;28.23
79368;BME280;68834;53.152;17.962;2023-04-06T09:26:11;101821.06;;;15.76;27.78
79368;BME280;68834;53.152;17.962;2023-04-06T09:28:48;101818.60;;;16.22;27.38
79368;BME280;68834;53.152;17.962;2023-04-06T09:31:16;101817.63;;;16.25;25.25
79368;BME280;68834;53.152;17.962;2023-04-06T09:33:44;101815.41;;;15.88;25.45
79368;BME280;68834;53.152;17.962;2023-04-06T09:36:12;101818.89;;;15.77;24.64
79368;BME280;68834;53.152;17.962;2023-04-06T09:41:24;101813.83;;;15.31;25.10
79368;BME280;68834;53.152;17.962;2023-04-06T09:43:52;101814.03;;;15.49;25.39
79368;BME280;68834;53.152;17.962;2023-04-06T09:46:29;101807.58;;;15.90;24.95
79368;BME280;68834;53.152;17.962;2023-04-06T09:48:57;101809.94;;;15.93;24.38
79368;BME280;68834;53.152;17.962;2023-04-06T09:51:24;101814.17;;;15.76;24.05
79368;BME280;68834;53.152;17.962;2023-04-06T09:53:53;101816.38;;;15.60;24.72
79368;BME280;68834;53.152;17.962;2023-04-06T09:56:23;101814.91;;;15.81;24.23
79368;BME280;68834;53.152;17.962;2023-04-06T09:58:56;101814.70;;;15.88;24.58
79368;BME280;68834;53.152;17.962;2023-04-06T10:01:28;101813.34;;;16.26;24.55
79368;BME280;68834;53.152;17.962;2023-04-06T10:04:10;101814.65;;;16.63;23.85
79368;BME280;68834;53.152;17.962;2023-04-06T10:06:39;101816.76;;;17.05;23.84
79368;BME280;68834;53.152;17.962;2023-04-06T10:09:07;101808.14;;;17.24;22.75
79368;BME280;68834;53.152;17.962;2023-04-06T10:11:34;101808.32;;;17.34;22.77
79368;BME280;68834;53.152;17.962;2023-04-06T10:14:02;101809.39;;;17.43;23.21
79368;BME280;68834;53.152;17.962;2023-04-06T10:16:29;101806.44;;;17.76;23.13
79368;BME280;68834;53.152;17.962;2023-04-06T10:19:09;101800.63;;;18.12;23.02
79368;BME280;68834;53.152;17.962;2023-04-06T10:21:39;101797.03;;;18.57;22.77
79368;BME280;68834;53.152;17.962;2023-04-06T10:24:09;101797.33;;;18.93;22.53
79368;BME280;68834;53.152;17.962;2023-04-06T10:26:39;101795.05;;;19.04;22.16
79368;BME280;68834;53.152;17.962;2023-04-06T10:29:06;101790.77;;;19.29;21.68
79368;BME280;68834;53.152;17.962;2023-04-06T10:31:39;101790.06;;;19.29;21.54
79368;BME280;68834;53.152;17.962;2023-04-06T10:34:08;101787.88;;;19.50;21.75
79368;BME280;68834;53.152;17.962;2023-04-06T10:36:34;101787.46;;;19.55;21.36
79368;BME280;68834;53.152;17.962;2023-04-06T10:39:04;101787.23;;;19.37;21.17
79368;BME280;68834;53.152;17.962;2023-04-06T10:41:43;101788.05;;;19.15;21.22
79368;BME280;68834;53.152;17.962;2023-04-06T10:44:21;101779.20;;;19.10;21.32
79368;BME280;68834;53.152;17.962;2023-04-06T10:46:59;101781.18;;;18.93;21.20
79368;BME280;68834;53.152;17.962;2023-04-06T10:49:29;101778.76;;;18.54;20.97
79368;BME280;68834;53.152;17.962;2023-04-06T10:51:56;101775.02;;;18.54;21.28
79368;BME280;68834;53.152;17.962;2023-04-06T10:54:24;101772.51;;;18.67;21.10
79368;BME280;68834;53.152;17.962;2023-04-06T10:56:52;101767.77;;;18.92;21.15
79368;BME280;68834;53.152;17.962;2023-04-06T10:59:21;101759.58;;;19.44;21.25
79368;BME280;68834;53.152;17.962;2023-04-06T11:01:48;101757.23;;;20.42;20.42
79368;BME280;68834;53.152;17.962;2023-04-06T11:04:19;101746.54;;;22.42;19.77
79368;BME280;68834;53.152;17.962;2023-04-06T11:06:48;101744.16;;;24.59;18.40
79368;BME280;68834;53.152;17.962;2023-04-06T11:09:28;101735.88;;;25.99;16.98
79368;BME280;68834;53.152;17.962;2023-04-06T11:11:55;101737.70;;;26.84;16.24
79368;BME280;68834;53.152;17.962;2023-04-06T11:14:23;101736.88;;;27.08;15.51
79368;BME280;68834;53.152;17.962;2023-04-06T11:16:49;101729.84;;;26.44;15.31
79368;BME280;68834;53.152;17.962;2023-04-06T11:19:17;101731.23;;;25.57;15.55
79368;BME280;68834;53.152;17.962;2023-04-06T11:21:45;101738.29;;;24.59;15.74
79368;BME280;68834;53.152;17.962;2023-04-06T11:24:16;101731.61;;;25.44;15.48
79368;BME280;68834;53.152;17.962;2023-04-06T11:26:44;101721.27;;;27.15;14.43
79368;BME280;68834;53.152;17.962;2023-04-06T11:29:12;101719.16;;;28.29;13.64
79368;BME280;68834;53.152;17.962;2023-04-06T11:31:50;101716.98;;;28.92;13.46
79368;BME280;68834;53.152;17.962;2023-04-06T11:34:23;101716.53;;;28.60;12.91
79368;BME280;68834;53.152;17.962;2023-04-06T11:36:58;101720.79;;;27.63;13.22
79368;BME280;68834;53.152;17.962;2023-04-06T11:39:26;101723.25;;;27.20;13.72
79368;BME280;68834;53.152;17.962;2023-04-06T11:41:57;101723.93;;;27.76;13.67
79368;BME280;68834;53.152;17.962;2023-04-06T11:44:35;101723.05;;;28.82;13.08
79368;BME280;68834;53.152;17.962;2023-04-06T11:47:03;101715.87;;;29.22;12.34
79368;BME280;68834;53.152;17.962;2023-04-06T11:49:31;101709.87;;;29.65;12.26
79368;BME280;68834;53.152;17.962;2023-04-06T11:52:00;101702.07;;;30.64;12.17
79368;BME280;68834;53.152;17.962;2023-04-06T11:54:31;101697.36;;;31.76;11.56
79368;BME280;68834;53.152;17.962;2023-04-06T11:56:57;101697.15;;;32.71;11.04
79368;BME280;68834;53.152;17.962;2023-04-06T11:59:24;101694.19;;;33.28;10.51
79368;BME280;68834;53.152;17.962;2023-04-06T12:01:51;101686.36;;;33.67;10.63
79368;BME280;68834;53.152;17.962;2023-04-06T12:04:20;101684.16;;;34.32;10.15
79368;BME280;68834;53.152;17.962;2023-04-06T12:06:47;101680.11;;;34.74;9.90
79368;BME280;68834;53.152;17.962;2023-04-06T12:09:16;101676.63;;;34.59;9.13
79368;BME280;68834;53.152;17.962;2023-04-06T12:11:44;101672.58;;;33.57;8.95
79368;BME280;68834;53.152;17.962;2023-04-06T12:14:10;101672.69;;;33.40;9.64
79368;BME280;68834;53.152;17.962;2023-04-06T12:16:37;101665.27;;;33.66;9.56
79368;BME280;68834;53.152;17.962;2023-04-06T12:19:04;101668.20;;;33.97;9.33
79368;BME280;68834;53.152;17.962;2023-04-06T12:21:34;101655.30;;;33.97;9.46
79368;BME280;68834;53.152;17.962;2023-04-06T12:24:01;101660.80;;;33.42;9.55
79368;BME280;68834;53.152;17.962;2023-04-06T12:26:29;101664.48;;;33.11;9.69
79368;BME280;68834;53.152;17.962;2023-04-06T12:28:56;101663.05;;;33.52;9.76
79368;BME280;68834;53.152;17.962;2023-04-06T12:31:23;101660.90;;;33.49;9.53
79368;BME280;68834;53.152;17.962;2023-04-06T12:33:52;101651.52;;;33.78;9.32
79368;BME280;68834;53.152;17.962;2023-04-06T12:36:19;101644.96;;;33.93;9.08
79368;BME280;68834;53.152;17.962;2023-04-06T12:38:47;101638.72;;;34.08;8.67
79368;BME280;68834;53.152;17.962;2023-04-06T12:41:14;101637.55;;;33.44;8.73
79368;BME280;68834;53.152;17.962;2023-04-06T12:43:42;101639.41;;;33.18;8.83
79368;BME280;68834;53.152;17.962;2023-04-06T12:46:09;101637.20;;;32.95;8.90
79368;BME280;68834;53.152;17.962;2023-04-06T12:48:35;101639.48;;;32.84;9.28
79368;BME280;68834;53.152;17.962;2023-04-06T12:51:04;101633.65;;;32.72;9.42
79368;BME280;68834;53.152;17.962;2023-04-06T12:53:33;101626.91;;;32.83;9.44